Time;durP1;ratioP1;P1;durP2;ratioP2;P2;SDS_P1;SDS_P2;PMS_P1;PMS_P2;Temp;Humidity;BMP_temperature;BMP_pressure;BME280_temperature;BME280_humidity;BME280_pressure;Samples;Min_cycle;Max_cycle;Signal;HPM_P1;HPM_P2
2021/08/10 00:01:57;;;;;;;12.73;11.73;;;15.30;79.40;;;;;;5052751;29;20368;-68
2021/08/10 00:04:29;;;;;;;12.80;11.80;;;15.30;79.10;;;;;;5049009;29;20041;-70
2021/08/10 00:07:01;;;;;;;13.07;11.90;;;15.30;79.30;;;;;;5052181;29;20044;-70
2021/08/10 00:09:33;;;;;;;12.85;11.85;;;15.30;79.30;;;;;;5046795;29;20041;-69
2021/08/10 00:12:05;;;;;;;12.88;11.55;;;15.20;79.00;;;;;;5050929;29;20120;-69
2021/08/10 00:14:37;;;;;;;13.10;12.00;;;15.20;78.80;;;;;;5049627;29;20459;-68
2021/08/10 00:17:09;;;;;;;12.63;11.63;;;15.20;77.90;;;;;;5050369;29;20703;-68
2021/08/10 00:19:41;;;;;;;12.68;11.65;;;15.20;77.20;;;;;;5049989;29;20100;-67
2021/08/10 00:22:13;;;;;;;12.95;11.75;;;15.10;76.80;;;;;;5050829;29;20136;-70
2021/08/10 00:24:45;;;;;;;12.80;11.48;;;15.10;76.80;;;;;;5048952;29;20145;-67
2021/08/10 00:27:17;;;;;;;12.70;11.60;;;15.10;78.40;;;;;;5050746;29;20115;-70
2021/08/10 00:29:50;;;;;;;13.07;11.98;;;15.10;78.60;;;;;;5053307;29;20443;-68
2021/08/10 00:32:22;;;;;;;12.80;11.70;;;15.10;78.40;;;;;;5049561;29;20049;-68
2021/08/10 00:34:54;;;;;;;13.02;11.93;;;15.10;78.50;;;;;;5045926;29;20478;-68
2021/08/10 00:37:26;;;;;;;13.10;12.00;;;15.10;79.50;;;;;;5033829;29;20072;-68
2021/08/10 00:39:58;;;;;;;12.80;11.70;;;15.10;79.40;;;;;;5032633;29;20144;-68
2021/08/10 00:42:30;;;;;;;13.05;11.80;;;15.00;80.00;;;;;;5037075;29;20052;-68
2021/08/10 00:45:04;;;;;;;13.18;12.10;;;15.10;79.50;;;;;;5030850;29;20785;-70
2021/08/10 00:47:40;;;;;;;12.27;11.27;;;15.10;78.50;;;;;;5040285;29;20822;-67
2021/08/10 00:50:13;;;;;;;12.98;11.82;;;15.00;78.10;;;;;;5033401;29;20052;-67
2021/08/10 00:52:48;;;;;;;12.57;11.57;;;15.00;78.30;;;;;;5036940;29;20056;-69
2021/08/10 00:55:23;;;;;;;13.43;12.10;;;14.90;78.50;;;;;;5031760;29;20057;-67
2021/08/10 00:57:58;;;;;;;12.95;11.85;;;15.00;79.00;;;;;;5048249;29;20048;-67
2021/08/10 01:00:30;;;;;;;12.13;11.13;;;15.00;78.70;;;;;;5038509;29;20044;-67
2021/08/10 01:03:03;;;;;;;12.88;11.77;;;15.00;78.70;;;;;;5051218;29;20049;-69
2021/08/10 01:05:36;;;;;;;13.23;12.02;;;15.00;78.30;;;;;;5048281;29;20040;-67
2021/08/10 01:08:24;;;;;;;13.25;12.15;;;14.90;78.40;;;;;;5035711;29;20053;-69
2021/08/10 01:11:11;;;;;;;13.23;11.80;;;14.80;77.70;;;;;;5032273;29;20056;-67
2021/08/10 01:14:00;;;;;;;12.25;11.25;;;14.80;80.20;;;;;;5048601;29;20055;-67
2021/08/10 01:16:51;;;;;;;12.75;11.65;;;14.70;80.30;;;;;;5034002;29;20159;-69
2021/08/10 01:19:34;;;;;;;12.55;11.52;;;14.70;79.70;;;;;;5031758;29;20055;-67
2021/08/10 01:22:08;;;;;;;12.57;11.57;;;14.70;79.90;;;;;;5048702;29;20053;-67
2021/08/10 01:25:04;;;;;;;12.88;11.80;;;14.70;79.50;;;;;;5049786;29;20463;-68
2021/08/10 01:28:10;;;;;;;13.00;11.90;;;14.70;79.60;;;;;;5048804;29;20103;-67
2021/08/10 01:30:53;;;;;;;13.10;12.10;;;14.60;80.50;;;;;;5031375;29;20049;-67
2021/08/10 01:33:30;;;;;;;13.50;12.30;;;14.60;79.60;;;;;;5039732;29;20545;-68
2021/08/10 01:36:04;;;;;;;14.20;12.30;;;14.70;79.80;;;;;;5049883;29;20045;-68
2021/08/10 01:38:39;;;;;;;13.40;12.30;;;14.70;79.90;;;;;;5029624;29;20060;-67
2021/08/10 01:41:12;;;;;;;13.70;12.38;;;14.60;79.80;;;;;;5034082;29;20064;-67
2021/08/10 01:43:46;;;;;;;13.73;12.43;;;14.60;79.70;;;;;;5045533;29;20052;-67
2021/08/10 01:46:24;;;;;;;13.75;12.52;;;14.60;79.90;;;;;;5046217;29;20129;-67
2021/08/10 01:48:59;;;;;;;13.82;12.63;;;14.60;79.70;;;;;;5039732;29;21044;-67
2021/08/10 01:51:33;;;;;;;13.10;12.10;;;14.60;81.50;;;;;;5028528;29;20041;-68
2021/08/10 01:54:09;;;;;;;13.52;12.32;;;14.50;81.70;;;;;;5024307;29;20838;-67
2021/08/10 01:56:42;;;;;;;13.02;11.85;;;14.50;81.20;;;;;;5036264;29;20426;-68
2021/08/10 01:59:17;;;;;;;13.73;12.60;;;14.50;81.20;;;;;;5039017;29;20060;-67
2021/08/10 02:01:51;;;;;;;13.80;12.63;;;14.50;80.90;;;;;;5032437;29;20049;-67
2021/08/10 02:04:26;;;;;;;13.73;12.63;;;14.50;80.20;;;;;;5047377;29;20100;-68
2021/08/10 02:07:02;;;;;;;14.35;13.05;;;14.50;80.40;;;;;;5030288;29;20045;-68
2021/08/10 02:09:37;;;;;;;13.45;12.35;;;14.50;80.50;;;;;;5023832;29;20044;-68
2021/08/10 02:12:10;;;;;;;13.15;12.13;;;14.50;80.40;;;;;;5031908;29;20053;-68
2021/08/10 02:14:45;;;;;;;13.02;12.00;;;14.50;80.00;;;;;;5029635;29;20056;-68
2021/08/10 02:17:27;;;;;;;13.32;12.15;;;14.40;80.40;;;;;;5028126;29;20184;-68
2021/08/10 02:20:06;;;;;;;13.35;12.30;;;14.40;80.80;;;;;;5028372;29;20053;-69
2021/08/10 02:22:41;;;;;;;12.93;11.93;;;14.40;80.70;;;;;;5049406;29;20043;-68
2021/08/10 02:25:22;;;;;;;12.70;11.70;;;14.40;80.60;;;;;;5046917;29;20045;-68
2021/08/10 02:28:04;;;;;;;;;;;14.40;79.90;;;;;;5031158;29;20100;-68
2021/08/10 02:30:38;;;;;;;13.50;12.43;;;14.30;79.80;;;;;;5031236;29;19934;-68
2021/08/10 02:33:12;;;;;;;13.52;12.43;;;14.30;80.10;;;;;;5046809;29;20052;-69
2021/08/10 02:35:55;;;;;;;14.07;12.98;;;14.30;80.00;;;;;;5033528;29;20076;-69
2021/08/10 02:38:30;;;;;;;13.50;12.45;;;14.30;81.70;;;;;;5046730;29;20136;-67
2021/08/10 02:41:03;;;;;;;14.40;13.30;;;14.30;81.70;;;;;;5040930;29;20045;-68
2021/08/10 02:43:40;;;;;;;14.48;13.38;;;14.20;81.20;;;;;;5039531;29;20049;-67
2021/08/10 02:46:13;;;;;;;13.93;12.73;;;14.10;82.70;;;;;;5048627;29;20519;-68
2021/08/10 02:48:45;;;;;;;13.98;12.75;;;14.10;82.20;;;;;;5017084;29;20646;-66
2021/08/10 02:51:19;;;;;;;12.93;11.90;;;14.10;83.00;;;;;;5026620;29;20075;-69
2021/08/10 02:53:52;;;;;;;13.90;12.80;;;14.10;82.20;;;;;;5036064;29;20404;-68
2021/08/10 02:56:29;;;;;;;13.20;12.10;;;14.10;82.00;;;;;;5031010;29;20590;-68
2021/08/10 02:59:10;;;;;;;14.02;12.82;;;14.10;81.90;;;;;;5039027;29;20159;-70
2021/08/10 03:01:49;;;;;;;13.38;12.18;;;14.10;82.00;;;;;;5038049;29;20744;-67
2021/08/10 03:04:25;;;;;;;13.07;11.88;;;14.10;81.60;;;;;;5045145;29;20051;-67
2021/08/10 03:06:58;;;;;;;13.32;12.23;;;14.10;80.80;;;;;;5030580;29;20041;-67
2021/08/10 03:09:33;;;;;;;13.38;12.07;;;14.00;81.30;;;;;;5026108;29;20455;-69
2021/08/10 03:12:08;;;;;;;13.23;12.02;;;14.00;81.20;;;;;;5040432;29;20523;-68
2021/08/10 03:14:41;;;;;;;12.32;11.38;;;14.00;81.20;;;;;;5036444;29;20124;-67
2021/08/10 03:17:14;;;;;;;1999.90;999.90;;;14.00;81.00;;;;;;5045541;29;20045;-67
2021/08/10 03:19:46;;;;;;;14.48;12.70;;;14.00;81.20;;;;;;5036519;29;20052;-68
2021/08/10 03:22:20;;;;;;;12.90;11.80;;;14.00;80.90;;;;;;5046547;29;20049;-67
2021/08/10 03:24:53;;;;;;;12.30;11.23;;;13.90;81.20;;;;;;5048047;29;20080;-67
2021/08/10 03:27:27;;;;;;;13.32;11.93;;;13.90;81.60;;;;;;5033656;29;20156;-67
2021/08/10 03:30:02;;;;;;;12.25;11.15;;;13.80;81.50;;;;;;5034385;29;20637;-67
2021/08/10 03:32:35;;;;;;;13.05;11.60;;;13.80;81.80;;;;;;5038560;29;20954;-67
2021/08/10 03:35:08;;;;;;;12.50;11.50;;;13.70;81.60;;;;;;5040894;29;20048;-68
2021/08/10 03:37:41;;;;;;;17.48;12.73;;;13.70;81.70;;;;;;5030541;29;20045;-67
2021/08/10 03:40:14;;;;;;;12.88;11.60;;;13.70;81.80;;;;;;5049118;29;20742;-67
2021/08/10 03:42:46;;;;;;;12.55;11.35;;;13.70;81.60;;;;;;5039087;29;20570;-69
2021/08/10 03:45:22;;;;;;;13.57;11.95;;;13.70;82.00;;;;;;5037335;29;20084;-70
2021/08/10 03:47:56;;;;;;;14.20;12.73;;;13.60;81.60;;;;;;5034570;29;20064;-67
2021/08/10 03:50:29;;;;;;;13.32;12.20;;;13.60;81.60;;;;;;5044322;29;20052;-66
2021/08/10 03:53:02;;;;;;;13.77;12.43;;;13.60;81.30;;;;;;5034941;29;20055;-67
2021/08/10 03:55:35;;;;;;;13.20;12.02;;;13.50;81.80;;;;;;5022599;29;20120;-67
2021/08/10 03:58:09;;;;;;;13.23;12.13;;;13.50;81.60;;;;;;5042471;29;20052;-66
2021/08/10 04:00:44;;;;;;;13.70;12.63;;;13.50;81.70;;;;;;5039105;29;20141;-66
2021/08/10 04:03:18;;;;;;;14.48;13.13;;;13.50;81.60;;;;;;5051088;29;20127;-69
2021/08/10 04:05:53;;;;;;;13.63;12.23;;;13.50;81.40;;;;;;5047791;29;20044;-67
2021/08/10 04:08:27;;;;;;;12.60;11.60;;;13.50;81.50;;;;;;5041637;29;20439;-67
2021/08/10 04:10:59;;;;;;;12.70;11.63;;;13.50;81.30;;;;;;5026141;29;20050;-67
2021/08/10 04:13:34;;;;;;;12.63;11.48;;;13.40;81.50;;;;;;5050134;29;20415;-68
2021/08/10 04:16:10;;;;;;;13.20;12.10;;;13.30;82.50;;;;;;5036561;29;20721;-67
2021/08/10 04:18:48;;;;;;;12.77;11.55;;;13.30;82.10;;;;;;5048274;29;20045;-68
2021/08/10 04:21:25;;;;;;;13.15;11.77;;;13.30;81.80;;;;;;5046226;29;20493;-67
2021/08/10 04:24:04;;;;;;;11.73;10.73;;;13.30;81.60;;;;;;5041716;29;20566;-67
2021/08/10 04:26:37;;;;;;;11.70;10.65;;;13.30;81.80;;;;;;5032691;29;20128;-66
2021/08/10 04:29:09;;;;;;;12.93;11.40;;;13.30;82.20;;;;;;5035090;29;20053;-66
2021/08/10 04:31:42;;;;;;;11.65;10.55;;;13.30;82.30;;;;;;5038047;29;20045;-66
2021/08/10 04:34:15;;;;;;;12.57;11.27;;;13.40;81.80;;;;;;5032756;29;20040;-67
2021/08/10 04:36:47;;;;;;;11.52;10.63;;;13.40;81.80;;;;;;5050229;29;20037;-69
2021/08/10 04:39:19;;;;;;;12.50;11.20;;;13.40;82.00;;;;;;5041519;29;20045;-66
2021/08/10 04:41:59;;;;;;;11.70;10.70;;;13.30;82.30;;;;;;5046742;29;20477;-69
2021/08/10 04:44:32;;;;;;;11.77;10.77;;;13.40;82.80;;;;;;5026143;29;20063;-69
2021/08/10 04:47:05;;;;;;;12.07;10.68;;;13.30;82.50;;;;;;5037847;29;20045;-67
2021/08/10 04:49:40;;;;;;;12.70;11.40;;;13.30;82.20;;;;;;5032034;29;20045;-67
2021/08/10 04:52:13;;;;;;;12.70;11.50;;;13.30;82.40;;;;;;5036142;29;20048;-69
2021/08/10 04:54:46;;;;;;;12.43;11.35;;;13.40;82.50;;;;;;5039996;29;20053;-68
2021/08/10 04:57:18;;;;;;;12.50;11.38;;;13.40;82.40;;;;;;5040765;29;20079;-67
2021/08/10 04:59:51;;;;;;;12.95;11.65;;;13.50;83.20;;;;;;5023351;29;20590;-66
2021/08/10 05:02:23;;;;;;;12.15;11.15;;;13.60;83.50;;;;;;5040970;29;20049;-67
2021/08/10 05:04:55;;;;;;;11.65;10.65;;;13.70;83.10;;;;;;5036055;29;20783;-66
2021/08/10 05:07:27;;;;;;;12.13;10.65;;;13.80;82.70;;;;;;5039845;29;20080;-65
2021/08/10 05:10:00;;;;;;;11.77;10.70;;;13.90;82.90;;;;;;5049151;29;20392;-65
2021/08/10 05:12:36;;;;;;;13.07;11.52;;;14.00;82.40;;;;;;5037096;29;20609;-66
2021/08/10 05:15:11;;;;;;;12.27;11.07;;;14.10;82.30;;;;;;5044260;29;20144;-66
2021/08/10 05:17:43;;;;;;;12.48;11.18;;;14.20;81.90;;;;;;5048959;29;20419;-66
2021/08/10 05:20:15;;;;;;;12.18;11.15;;;14.30;83.20;;;;;;5048169;29;20052;-66
2021/08/10 05:22:50;;;;;;;13.15;11.80;;;14.30;82.80;;;;;;5041706;29;20045;-66
2021/08/10 05:25:23;;;;;;;12.40;11.30;;;14.50;82.50;;;;;;5046927;29;20402;-66
2021/08/10 05:27:57;;;;;;;12.40;11.30;;;14.60;82.40;;;;;;5046781;29;20045;-65
2021/08/10 05:30:29;;;;;;;12.60;11.43;;;14.70;82.00;;;;;;5034758;29;20045;-65
2021/08/10 05:33:01;;;;;;;12.63;11.43;;;14.80;81.20;;;;;;5039701;29;20054;-67
2021/08/10 05:35:38;;;;;;;12.80;11.70;;;14.90;81.70;;;;;;5044618;29;20157;-65
2021/08/10 05:38:11;;;;;;;13.07;11.88;;;15.00;82.00;;;;;;5045750;29;20896;-65
2021/08/10 05:40:46;;;;;;;13.10;12.00;;;15.10;81.80;;;;;;5037442;29;20060;-66
2021/08/10 05:43:18;;;;;;;12.52;11.40;;;15.10;81.60;;;;;;5038797;29;20741;-67
2021/08/10 05:45:50;;;;;;;12.90;11.80;;;15.10;81.80;;;;;;5037132;29;20951;-65
2021/08/10 05:48:23;;;;;;;13.20;12.05;;;15.10;81.60;;;;;;5031970;29;21115;-65
2021/08/10 05:51:00;;;;;;;13.23;12.10;;;15.20;81.60;;;;;;5047546;29;20522;-65
2021/08/10 05:53:36;;;;;;;12.60;11.40;;;15.20;81.30;;;;;;5037446;29;20159;-66
2021/08/10 05:56:11;;;;;;;12.95;11.85;;;15.20;81.60;;;;;;5045289;29;20057;-66
2021/08/10 05:58:43;;;;;;;13.38;12.27;;;15.30;82.00;;;;;;5028767;29;20873;-65
2021/08/10 06:01:15;;;;;;;13.18;12.07;;;15.30;81.70;;;;;;5029339;29;20057;-65
2021/08/10 06:03:48;;;;;;;12.93;11.82;;;15.30;82.00;;;;;;5043855;29;20128;-67
2021/08/10 06:06:24;;;;;;;13.23;12.13;;;15.30;82.10;;;;;;5034419;29;20498;-65
2021/08/10 06:08:56;;;;;;;13.55;12.45;;;15.50;82.20;;;;;;5041072;29;20105;-65
2021/08/10 06:11:28;;;;;;;14.23;13.02;;;15.70;82.70;;;;;;5038798;29;20121;-65
2021/08/10 06:14:02;;;;;;;14.50;13.30;;;16.00;81.30;;;;;;5038380;29;20078;-67
2021/08/10 06:16:34;;;;;;;13.35;12.20;;;16.10;81.50;;;;;;5043932;29;20041;-65
2021/08/10 06:19:14;;;;;;;13.40;12.35;;;16.30;81.00;;;;;;5031449;29;20064;-66
2021/08/10 06:21:48;;;;;;;15.00;13.43;;;16.40;80.40;;;;;;5032929;29;20060;-66
2021/08/10 06:24:20;;;;;;;13.98;12.85;;;16.50;81.30;;;;;;5026599;29;20049;-65
2021/08/10 06:26:52;;;;;;;13.90;12.60;;;16.70;79.90;;;;;;5031660;29;20032;-65
2021/08/10 06:29:25;;;;;;;14.27;13.07;;;16.90;79.30;;;;;;5047693;29;20100;-65
2021/08/10 06:31:57;;;;;;;13.80;12.48;;;17.00;78.30;;;;;;5030211;29;20519;-67
2021/08/10 06:34:29;;;;;;;14.32;13.15;;;17.20;76.80;;;;;;5039019;29;20138;-67
2021/08/10 06:37:01;;;;;;;14.75;13.55;;;17.30;76.70;;;;;;5030532;29;20543;-68
2021/08/10 06:39:38;;;;;;;14.50;13.40;;;17.50;77.80;;;;;;5036338;29;20556;-66
2021/08/10 06:42:10;;;;;;;15.10;13.82;;;17.70;77.90;;;;;;5047224;29;20444;-66
2021/08/10 06:44:44;;;;;;;14.75;13.55;;;17.80;76.80;;;;;;5029738;29;20088;-66
2021/08/10 06:47:16;;;;;;;14.70;13.50;;;18.00;76.60;;;;;;5042944;29;20048;-67
2021/08/10 06:49:51;;;;;;;15.15;13.90;;;18.10;75.80;;;;;;5036038;29;20790;-66
2021/08/10 06:52:23;;;;;;;15.75;14.55;;;18.20;75.00;;;;;;5045542;29;20400;-66
2021/08/10 06:54:55;;;;;;;15.45;14.20;;;18.30;76.10;;;;;;5032650;29;20045;-66
2021/08/10 06:57:27;;;;;;;15.77;14.57;;;18.50;75.70;;;;;;5034095;29;20045;-65
2021/08/10 07:00:01;;;;;;;15.98;14.50;;;18.60;73.70;;;;;;5021619;29;20052;-67
2021/08/10 07:02:33;;;;;;;15.35;14.05;;;18.60;73.20;;;;;;5036156;29;20053;-68
2021/08/10 07:05:06;;;;;;;16.65;15.23;;;18.70;73.80;;;;;;5039911;29;20043;-68
2021/08/10 07:07:38;;;;;;;16.50;15.20;;;18.90;73.40;;;;;;5051129;29;20101;-68
2021/08/10 07:10:11;;;;;;;16.67;15.45;;;19.00;73.20;;;;;;5041356;29;20044;-67
2021/08/10 07:12:43;;;;;;;17.60;16.00;;;19.10;71.60;;;;;;5039716;29;20071;-67
2021/08/10 07:15:19;;;;;;;16.15;14.90;;;19.30;71.50;;;;;;5036097;29;20053;-66
2021/08/10 07:17:53;;;;;;;15.85;14.65;;;19.40;70.40;;;;;;5037773;29;20169;-66
2021/08/10 07:20:28;;;;;;;17.02;15.60;;;19.40;67.90;;;;;;5037928;29;20063;-67
2021/08/10 07:23:00;;;;;;;16.45;15.20;;;19.50;70.90;;;;;;5041715;29;20053;-65
2021/08/10 07:25:41;;;;;;;16.23;15.00;;;19.70;70.40;;;;;;5043226;29;20774;-66
2021/08/10 07:28:14;;;;;;;16.40;15.13;;;19.70;68.40;;;;;;5050927;29;20061;-67
2021/08/10 07:30:46;;;;;;;16.23;14.93;;;19.70;69.60;;;;;;5030941;29;20128;-68
2021/08/10 07:33:21;;;;;;;16.85;15.38;;;19.90;66.80;;;;;;5042249;29;20148;-68
2021/08/10 07:35:53;;;;;;;16.65;15.38;;;20.00;67.50;;;;;;5047031;29;20052;-67
2021/08/10 07:38:25;;;;;;;16.83;15.32;;;20.10;67.60;;;;;;5050882;29;20651;-66
2021/08/10 07:40:57;;;;;;;16.38;15.07;;;20.20;63.00;;;;;;5030484;29;20917;-66
2021/08/10 07:43:32;;;;;;;16.92;15.63;;;20.30;64.50;;;;;;5047054;29;20072;-69
2021/08/10 07:46:09;;;;;;;16.33;15.02;;;20.30;62.80;;;;;;5033845;29;20053;-67
2021/08/10 07:48:41;;;;;;;15.75;14.45;;;20.30;62.20;;;;;;5037762;29;20052;-67
2021/08/10 07:51:13;;;;;;;16.17;14.98;;;20.40;66.10;;;;;;5036056;29;20111;-67
2021/08/10 07:53:46;;;;;;;16.13;14.85;;;20.60;67.60;;;;;;5033664;29;20459;-69
2021/08/10 07:56:19;;;;;;;15.77;14.57;;;20.70;64.50;;;;;;5031496;29;20218;-67
2021/08/10 07:58:55;;;;;;;16.83;15.52;;;20.70;61.60;;;;;;5039444;29;20530;-67
2021/08/10 08:01:27;;;;;;;17.08;15.77;;;20.80;63.40;;;;;;5033033;29;20057;-67
2021/08/10 08:04:00;;;;;;;16.23;14.73;;;21.00;64.40;;;;;;5040402;29;20589;-66
2021/08/10 08:06:34;;;;;;;15.75;14.55;;;21.10;63.00;;;;;;5039298;29;20651;-67
2021/08/10 08:09:06;;;;;;;17.67;15.98;;;21.10;64.70;;;;;;5051169;29;20120;-67
2021/08/10 08:11:38;;;;;;;15.65;14.45;;;21.00;60.30;;;;;;5048210;29;20144;-66
2021/08/10 08:14:10;;;;;;;15.38;14.18;;;21.00;61.10;;;;;;5033429;29;20768;-68
2021/08/10 08:16:42;;;;;;;16.90;15.50;;;21.10;60.70;;;;;;5048785;29;20072;-67
2021/08/10 08:19:14;;;;;;;16.25;15.02;;;21.20;60.20;;;;;;5031948;29;20071;-68
2021/08/10 08:21:46;;;;;;;17.60;16.13;;;21.40;60.20;;;;;;5048098;29;20053;-67
2021/08/10 08:24:19;;;;;;;16.38;15.18;;;21.50;58.90;;;;;;5033847;29;20053;-69
2021/08/10 08:26:55;;;;;;;16.92;15.63;;;21.60;58.60;;;;;;5040062;29;20060;-67
2021/08/10 08:29:27;;;;;;;16.92;15.50;;;21.70;59.60;;;;;;5022420;29;20051;-67
2021/08/10 08:31:59;;;;;;;17.52;16.23;;;21.80;57.10;;;;;;5019206;29;20582;-67
2021/08/10 08:34:33;;;;;;;17.45;16.15;;;21.80;58.00;;;;;;5038750;29;20052;-68
2021/08/10 08:37:05;;;;;;;17.33;15.93;;;21.90;61.90;;;;;;5037506;29;20104;-66
2021/08/10 08:39:38;;;;;;;17.75;16.45;;;22.00;60.50;;;;;;5046231;29;20064;-66
2021/08/10 08:42:13;;;;;;;17.55;16.13;;;22.10;61.60;;;;;;5040263;29;20049;-67
2021/08/10 08:44:46;;;;;;;18.10;16.70;;;22.20;62.60;;;;;;5045554;29;20052;-69
2021/08/10 08:47:23;;;;;;;17.42;16.13;;;22.30;62.20;;;;;;5031662;29;20064;-67
2021/08/10 08:50:01;;;;;;;17.55;16.25;;;22.60;63.50;;;;;;5029600;29;20053;-68
2021/08/10 08:52:41;;;;;;;17.85;16.55;;;22.70;59.40;;;;;;5029830;29;20178;-67
2021/08/10 08:55:15;;;;;;;17.92;16.42;;;22.70;59.60;;;;;;5044441;29;20076;-67
2021/08/10 08:57:48;;;;;;;17.83;16.42;;;22.90;60.30;;;;;;5049039;29;20045;-66
2021/08/10 09:00:21;;;;;;;17.98;16.60;;;23.10;60.90;;;;;;5046471;29;20448;-67
2021/08/10 09:02:54;;;;;;;17.20;15.98;;;23.30;61.20;;;;;;5038359;29;20056;-65
2021/08/10 09:05:27;;;;;;;17.38;16.08;;;23.40;60.80;;;;;;5035489;29;20135;-66
2021/08/10 09:08:29;;;;;;;17.77;16.48;;;23.30;62.40;;;;;;5026380;29;20080;-66
2021/08/10 09:11:05;;;;;;;18.20;16.70;;;23.20;60.90;;;;;;5047016;29;20133;-67
2021/08/10 09:13:58;;;;;;;16.98;15.57;;;23.10;61.90;;;;;;5038202;29;20055;-67
2021/08/10 09:16:32;;;;;;;17.38;16.08;;;22.90;62.00;;;;;;5030344;29;20453;-68
2021/08/10 09:19:07;;;;;;;17.75;16.35;;;22.90;61.70;;;;;;5047441;29;20052;-66
2021/08/10 09:21:41;;;;;;;16.98;15.75;;;23.00;62.60;;;;;;5050145;29;20049;-66
2021/08/10 09:24:18;;;;;;;17.08;15.85;;;23.00;60.50;;;;;;5037877;29;20051;-67
2021/08/10 09:26:49;;;;;;;17.08;15.77;;;23.00;60.40;;;;;;5030426;29;20040;-66
2021/08/10 09:29:44;;;;;;;17.85;16.45;;;23.20;58.80;;;;;;5047836;29;20048;-66
2021/08/10 09:32:18;;;;;;;17.52;16.23;;;23.40;61.30;;;;;;5036570;29;20135;-68
2021/08/10 09:35:12;;;;;;;16.95;15.65;;;23.50;61.00;;;;;;5024869;29;20489;-67
2021/08/10 09:38:02;;;;;;;17.33;15.93;;;23.50;61.40;;;;;;5047873;29;20569;-66
2021/08/10 09:40:48;;;;;;;17.83;16.42;;;23.60;61.10;;;;;;5044864;29;20056;-66
2021/08/10 09:43:26;;;;;;;18.13;16.80;;;23.80;61.80;;;;;;5033756;29;20049;-66
2021/08/10 09:46:10;;;;;;;17.08;15.80;;;23.90;61.70;;;;;;5030354;29;20064;-68
2021/08/10 09:48:48;;;;;;;17.58;16.27;;;24.00;60.30;;;;;;5047523;29;20048;-66
2021/08/10 09:51:28;;;;;;;17.23;15.93;;;23.90;60.50;;;;;;5042963;29;20052;-66
2021/08/10 09:54:10;;;;;;;17.35;15.93;;;23.80;61.40;;;;;;5031777;29;20616;-67
2021/08/10 09:56:55;;;;;;;16.83;15.52;;;23.70;61.60;;;;;;5027019;29;20045;-65
2021/08/10 09:59:41;;;;;;;17.38;16.08;;;23.70;60.70;;;;;;5030227;29;20055;-65
2021/08/10 10:02:18;;;;;;;17.55;16.25;;;23.70;60.40;;;;;;5034759;29;20048;-66
2021/08/10 10:04:57;;;;;;;18.42;17.13;;;23.70;59.10;;;;;;5046048;29;20037;-66
2021/08/10 10:07:31;;;;;;;18.95;17.52;;;23.80;60.70;;;;;;5044828;29;20091;-66
2021/08/10 10:10:09;;;;;;;18.45;17.15;;;23.80;62.40;;;;;;5045518;29;20055;-66
2021/08/10 10:12:48;;;;;;;18.52;17.02;;;24.00;62.00;;;;;;5040197;29;20123;-67
2021/08/10 10:15:21;;;;;;;18.48;16.95;;;24.10;60.50;;;;;;5037998;29;20049;-66
2021/08/10 10:17:53;;;;;;;18.05;16.58;;;24.00;60.80;;;;;;5044997;29;20578;-66
2021/08/10 10:20:25;;;;;;;18.42;16.92;;;24.00;61.40;;;;;;5038458;29;20049;-67
2021/08/10 10:23:00;;;;;;;18.88;17.48;;;23.90;60.30;;;;;;5048722;29;20651;-65
2021/08/10 10:25:33;;;;;;;18.10;16.70;;;24.00;62.00;;;;;;5046542;29;20076;-67
2021/08/10 10:28:05;;;;;;;18.42;17.08;;;24.20;61.80;;;;;;5048139;29;20064;-66
2021/08/10 10:30:38;;;;;;;18.20;16.80;;;24.30;62.70;;;;;;5044761;29;20072;-66
2021/08/10 10:33:13;;;;;;;18.77;17.33;;;24.40;57.40;;;;;;5052185;29;20127;-66
2021/08/10 10:35:45;;;;;;;18.70;17.20;;;24.60;60.80;;;;;;5051626;29;20135;-65
2021/08/10 10:38:18;;;;;;;18.60;17.20;;;24.70;59.20;;;;;;5053019;29;20503;-67
2021/08/10 10:40:54;;;;;;;18.48;17.08;;;24.80;59.60;;;;;;5050117;29;20079;-66
2021/08/10 10:43:27;;;;;;;17.92;16.63;;;24.90;61.00;;;;;;5047784;29;20680;-65
2021/08/10 10:46:26;;;;;;;18.75;17.25;;;25.00;56.90;;;;;;5051975;29;20147;-67
2021/08/10 10:49:03;;;;;;;19.05;17.38;;;25.10;54.00;;;;;;5051540;29;20454;-66
2021/08/10 10:51:38;;;;;;;19.05;17.65;;;25.00;52.20;;;;;;5052482;29;20097;-66
2021/08/10 10:54:26;;;;;;;19.50;18.13;;;25.00;53.20;;;;;;5049057;29;20679;-66
2021/08/10 10:57:00;;;;;;;19.27;17.67;;;25.20;57.90;;;;;;5052235;29;20049;-66
2021/08/10 10:59:38;;;;;;;19.63;18.17;;;25.30;56.40;;;;;;5049179;29;20076;-68
2021/08/10 11:02:12;;;;;;;18.70;17.20;;;25.40;56.40;;;;;;5049643;29;20049;-66
2021/08/10 11:05:06;;;;;;;18.90;17.42;;;25.50;54.40;;;;;;5049997;29;20116;-66
2021/08/10 11:07:38;;;;;;;19.50;18.00;;;25.60;55.10;;;;;;5044856;29;20049;-65
2021/08/10 11:10:41;;;;;;;18.92;17.52;;;25.70;55.50;;;;;;5046979;29;20834;-66
2021/08/10 11:13:19;;;;;;;19.33;17.92;;;25.90;55.40;;;;;;5049358;29;20076;-66
2021/08/10 11:15:51;;;;;;;19.48;17.88;;;26.10;53.10;;;;;;5046862;29;20037;-66
2021/08/10 11:18:25;;;;;;;20.05;18.60;;;26.20;55.20;;;;;;5047444;29;20691;-67
2021/08/10 11:20:57;;;;;;;19.45;17.95;;;26.40;52.90;;;;;;5051664;29;20124;-67
2021/08/10 11:23:31;;;;;;;19.90;18.45;;;26.50;52.70;;;;;;5049247;29;20156;-67
2021/08/10 11:26:05;;;;;;;19.27;17.88;;;26.50;52.90;;;;;;5051044;29;20090;-68
2021/08/10 11:28:38;;;;;;;19.40;17.90;;;26.50;49.70;;;;;;5047887;29;20048;-67
2021/08/10 11:31:11;;;;;;;19.40;17.95;;;26.50;49.30;;;;;;5049227;29;20578;-66
2021/08/10 11:33:45;;;;;;;19.02;17.67;;;26.50;47.80;;;;;;5046189;29;20834;-66
2021/08/10 11:36:21;;;;;;;19.55;18.15;;;26.60;50.80;;;;;;5049689;29;20155;-67
2021/08/10 11:38:53;;;;;;;18.92;17.52;;;26.50;46.00;;;;;;5044994;29;20051;-66
2021/08/10 11:41:25;;;;;;;19.23;17.80;;;26.60;46.30;;;;;;5046952;29;20056;-66
2021/08/10 11:44:02;;;;;;;19.25;17.85;;;26.50;45.00;;;;;;5047423;29;20487;-66
2021/08/10 11:46:37;;;;;;;19.05;17.55;;;26.70;48.60;;;;;;5043624;29;20503;-67
2021/08/10 11:49:14;;;;;;;19.67;18.02;;;26.90;44.50;;;;;;5050464;29;20124;-66
2021/08/10 11:51:48;;;;;;;19.98;18.48;;;27.20;48.80;;;;;;5048806;29;20053;-69
2021/08/10 11:54:23;;;;;;;19.08;17.77;;;27.30;48.80;;;;;;5048415;29;20048;-66
2021/08/10 11:57:04;;;;;;;18.90;17.60;;;27.50;41.50;;;;;;5047836;29;20060;-66
2021/08/10 11:59:35;;;;;;;19.33;17.83;;;27.50;45.00;;;;;;5045648;29;20108;-67
2021/08/10 12:02:08;;;;;;;19.70;18.33;;;27.60;47.80;;;;;;5045357;29;20952;-66
2021/08/10 12:04:40;;;;;;;19.73;18.23;;;27.80;47.60;;;;;;5044973;29;20820;-67
2021/08/10 12:07:12;;;;;;;19.77;18.38;;;28.00;44.20;;;;;;5045850;29;20056;-67
2021/08/10 12:09:45;;;;;;;19.38;17.98;;;27.90;39.90;;;;;;5047267;29;20076;-66
2021/08/10 12:12:21;;;;;;;19.20;17.80;;;27.90;43.10;;;;;;5037223;29;20120;-69
2021/08/10 12:14:53;;;;;;;19.63;18.17;;;27.70;40.20;;;;;;5047882;29;20137;-67
2021/08/10 12:17:25;;;;;;;19.50;18.10;;;27.60;43.90;;;;;;5049916;29;20094;-67
2021/08/10 12:19:57;;;;;;;20.40;18.70;;;27.70;43.70;;;;;;5048773;29;20476;-66
2021/08/10 12:22:30;;;;;;;19.65;18.15;;;27.90;41.90;;;;;;5046730;29;20140;-67
2021/08/10 12:25:02;;;;;;;19.85;18.45;;;27.90;43.80;;;;;;5049378;29;20132;-67
2021/08/10 12:27:34;;;;;;;19.95;18.50;;;28.00;42.90;;;;;;5050294;29;20041;-67
2021/08/10 12:30:14;;;;;;;19.73;18.33;;;28.10;43.70;;;;;;5046859;29;20526;-67
2021/08/10 12:32:47;;;;;;;;;;;28.30;43.10;;;;;;5036974;29;20079;-67
2021/08/10 12:35:22;;;;;;;19.85;18.35;;;28.40;45.60;;;;;;5045089;29;19962;-68
2021/08/10 12:37:54;;;;;;;19.85;18.25;;;28.50;39.90;;;;;;5045923;29;20041;-67
2021/08/10 12:40:26;;;;;;;20.10;18.65;;;28.60;43.60;;;;;;5032819;29;20155;-67
2021/08/10 12:42:58;;;;;;;20.63;19.13;;;28.70;46.60;;;;;;5047143;29;20044;-67
2021/08/10 12:45:33;;;;;;;19.67;18.27;;;28.80;43.50;;;;;;5046082;29;20076;-67
2021/08/10 12:48:33;;;;;;;19.92;18.52;;;28.60;34.70;;;;;;5049927;29;20059;-66
2021/08/10 12:51:06;;;;;;;;;;;28.70;39.70;;;;;;5048915;29;20139;-68
2021/08/10 12:53:38;;;;;;;19.63;18.15;;;28.70;39.30;;;;;;5044126;29;20002;-66
2021/08/10 12:56:09;;;;;;;19.30;18.00;;;28.60;38.40;;;;;;5044107;29;20061;-67
2021/08/10 12:58:52;;;;;;;19.85;18.45;;;28.60;37.20;;;;;;5046332;29;20408;-66
2021/08/10 13:01:24;;;;;;;19.58;18.08;;;28.70;41.10;;;;;;5035314;29;20127;-66
2021/08/10 13:04:05;;;;;;;19.30;18.00;;;28.70;38.20;;;;;;5045821;29;20160;-68
2021/08/10 13:06:38;;;;;;;18.42;17.13;;;28.50;38.70;;;;;;5046066;29;20052;-66
2021/08/10 13:09:11;;;;;;;19.05;17.65;;;28.40;41.80;;;;;;5045761;29;20055;-66